createdAt,value
2022-11-03T00:01:36.030Z,2.07
2022-11-03T00:04:04.791Z,2.03
2022-11-03T00:06:33.343Z,1.50
2022-11-03T00:09:04.145Z,2.37
2022-11-03T00:11:33.827Z,2.93
2022-11-03T00:14:02.718Z,2.73
2022-11-03T00:16:31.324Z,2.00
2022-11-03T00:18:59.972Z,1.70
2022-11-03T00:21:28.498Z,1.70
2022-11-03T00:23:57.038Z,2.37
2022-11-03T00:26:27.380Z,2.07
2022-11-03T00:28:56.579Z,1.77
2022-11-03T00:31:26.215Z,2.93
2022-11-03T00:33:54.990Z,2.33
2022-11-03T00:36:24.410Z,2.07
2022-11-03T00:38:53.228Z,1.57
2022-11-03T00:41:22.245Z,2.20
2022-11-03T00:43:52.784Z,3.20
2022-11-03T00:46:22.630Z,1.97
2022-11-03T00:48:51.212Z,2.13
2022-11-03T00:51:20.544Z,1.63
2022-11-03T00:53:50.005Z,1.33
2022-11-03T00:56:19.596Z,2.33
2022-11-03T00:58:48.387Z,2.10
2022-11-03T01:01:19.599Z,2.67
2022-11-03T01:04:02.926Z,2.80
2022-11-03T01:06:59.011Z,1.77
2022-11-03T01:09:28.634Z,1.77
2022-11-03T01:12:01.164Z,1.60
2022-11-03T01:14:31.198Z,2.23
2022-11-03T01:17:01.215Z,1.73
2022-11-03T01:19:29.769Z,2.53
2022-11-03T01:21:58.328Z,2.07
2022-11-03T01:24:26.903Z,1.30
2022-11-03T01:26:55.501Z,2.07
2022-11-03T01:29:24.058Z,1.63
2022-11-03T01:31:52.611Z,1.67
2022-11-03T01:34:23.027Z,2.07
2022-11-03T01:36:51.534Z,3.50
2022-11-03T01:39:20.819Z,2.33
2022-11-03T01:41:50.541Z,2.20
2022-11-03T01:44:32.904Z,2.10
2022-11-03T01:47:04.837Z,2.57
2022-11-03T01:49:37.482Z,4.03
2022-11-03T01:52:09.496Z,2.27
2022-11-03T01:54:38.510Z,2.50
2022-11-03T01:57:08.540Z,2.00
2022-11-03T01:59:37.932Z,1.97
2022-11-03T02:02:06.593Z,2.50
2022-11-03T02:04:37.036Z,3.33
2022-11-03T02:07:11.220Z,1.93
2022-11-03T02:09:39.818Z,2.00
2022-11-03T02:12:09.256Z,1.57
2022-11-03T02:14:38.926Z,2.00
2022-11-03T02:17:09.702Z,1.30
2022-11-03T02:19:41.167Z,1.83
2022-11-03T02:22:28.145Z,1.80
2022-11-03T02:24:59.780Z,2.40
2022-11-03T02:27:29.730Z,1.90
2022-11-03T02:29:58.886Z,1.70
2022-11-03T02:32:30.418Z,1.63
2022-11-03T02:35:02.752Z,2.30
2022-11-03T02:37:33.608Z,2.60
2022-11-03T02:40:04.723Z,2.40
2022-11-03T02:42:34.990Z,2.20
2022-11-03T02:45:05.275Z,3.07
2022-11-03T02:47:34.684Z,1.77
2022-11-03T02:50:07.167Z,2.40
2022-11-03T02:52:37.458Z,2.70
2022-11-03T02:55:09.154Z,2.57
2022-11-03T02:57:41.174Z,3.23
2022-11-03T03:00:10.939Z,3.10
2022-11-03T03:02:41.263Z,2.27
2022-11-03T03:05:12.603Z,2.60
2022-11-03T03:07:43.974Z,2.00
2022-11-03T03:10:14.347Z,2.53
2022-11-03T03:12:45.263Z,2.70
2022-11-03T03:15:14.227Z,3.23
2022-11-03T03:17:46.125Z,2.23
2022-11-03T03:20:17.335Z,2.20
2022-11-03T03:22:48.315Z,2.63
2022-11-03T03:25:17.903Z,2.50
2022-11-03T03:27:49.168Z,2.80
2022-11-03T03:30:18.622Z,1.90
2022-11-03T03:32:49.244Z,2.50
2022-11-03T03:35:19.457Z,2.67
2022-11-03T03:37:49.488Z,2.53
2022-11-03T03:40:21.934Z,2.33
2022-11-03T03:42:52.924Z,1.80
2022-11-03T03:45:21.956Z,2.30
2022-11-03T03:47:53.644Z,2.00
2022-11-03T03:50:27.130Z,2.57
2022-11-03T03:52:56.871Z,2.40
2022-11-03T03:55:35.572Z,1.87
2022-11-03T03:58:06.277Z,2.20
2022-11-03T04:00:35.000Z,2.07
2022-11-03T04:03:03.537Z,2.07
2022-11-03T04:05:32.043Z,2.23
2022-11-03T04:08:00.584Z,2.80
2022-11-03T04:10:29.083Z,2.57
2022-11-03T04:13:26.846Z,2.33
2022-11-03T04:16:13.976Z,2.67
2022-11-03T04:19:00.238Z,2.40
2022-11-03T04:21:46.639Z,1.70
2022-11-03T04:24:15.203Z,2.80
2022-11-03T04:26:43.789Z,2.07
2022-11-03T04:29:12.855Z,2.43
2022-11-03T04:31:42.712Z,3.17
2022-11-03T04:34:13.561Z,2.20
2022-11-03T04:36:42.116Z,1.70
2022-11-03T04:39:17.946Z,2.57
2022-11-03T04:41:46.696Z,2.30
2022-11-03T04:44:16.508Z,3.80
2022-11-03T04:46:47.387Z,2.53
2022-11-03T04:49:18.589Z,2.03
2022-11-03T04:51:47.116Z,2.03
2022-11-03T04:54:16.799Z,2.13
2022-11-03T04:56:45.319Z,3.17
2022-11-03T04:59:15.064Z,2.90
2022-11-03T05:01:44.882Z,2.47
2022-11-03T05:04:15.646Z,2.03
2022-11-03T05:06:45.988Z,2.47
2022-11-03T05:09:16.799Z,2.30
2022-11-03T05:11:46.198Z,1.90
2022-11-03T05:14:16.782Z,2.50
2022-11-03T05:16:45.621Z,2.47
2022-11-03T05:19:17.165Z,2.03
2022-11-03T05:21:45.755Z,3.27
2022-11-03T05:26:48.702Z,2.77
2022-11-03T05:29:20.275Z,2.40
2022-11-03T05:31:49.467Z,3.27
2022-11-03T05:34:28.614Z,2.23
2022-11-03T05:36:57.255Z,2.30
2022-11-03T05:39:30.155Z,2.50
2022-11-03T05:41:59.841Z,2.10
2022-11-03T05:44:30.940Z,2.17
2022-11-03T05:47:03.090Z,1.77
2022-11-03T05:49:35.872Z,3.10
2022-11-03T05:52:04.402Z,3.53
2022-11-03T05:54:36.139Z,2.13
2022-11-03T05:57:09.040Z,2.17
2022-11-03T05:59:37.588Z,2.03
2022-11-03T06:02:07.978Z,2.00
2022-11-03T06:04:40.400Z,1.90
2022-11-03T06:07:13.796Z,1.73
2022-11-03T06:09:43.959Z,2.00
2022-11-03T06:12:14.394Z,2.47
2022-11-03T06:14:42.921Z,1.90
2022-11-03T06:17:13.357Z,1.57
2022-11-03T06:19:44.570Z,2.90
2022-11-03T06:22:15.866Z,2.60
2022-11-03T06:24:45.481Z,2.10
2022-11-03T06:27:14.818Z,2.80
2022-11-03T06:29:44.294Z,3.17
2022-11-03T06:32:14.350Z,1.53
2022-11-03T06:34:46.501Z,2.27
2022-11-03T06:37:20.919Z,2.20
2022-11-03T06:39:50.355Z,1.90
2022-11-03T06:42:21.781Z,1.30
2022-11-03T06:44:51.302Z,1.60
2022-11-03T06:47:23.906Z,2.13
2022-11-03T06:49:54.747Z,1.50
2022-11-03T06:52:27.553Z,1.67
2022-11-03T06:54:57.703Z,1.70
2022-11-03T06:57:26.257Z,2.13
2022-11-03T07:00:19.964Z,2.00
2022-11-03T07:02:51.965Z,2.10
2022-11-03T07:05:24.018Z,1.73
2022-11-03T07:07:54.097Z,1.80
2022-11-03T07:10:24.598Z,1.90
2022-11-03T07:12:53.374Z,1.97
2022-11-03T07:15:26.393Z,2.13
2022-11-03T07:17:54.986Z,2.40
2022-11-03T07:20:25.084Z,1.60
2022-11-03T07:22:54.281Z,1.90
2022-11-03T07:25:23.943Z,1.90
2022-11-03T07:27:53.405Z,2.17
2022-11-03T07:30:23.124Z,1.50
2022-11-03T07:32:53.733Z,1.60
2022-11-03T07:35:53.407Z,2.13
2022-11-03T07:38:22.057Z,1.37
2022-11-03T07:40:50.865Z,2.57
2022-11-03T07:43:21.120Z,2.20
2022-11-03T07:45:50.832Z,2.13
2022-11-03T07:48:21.087Z,1.37
2022-11-03T07:50:51.258Z,2.00
2022-11-03T07:53:25.936Z,1.90
2022-11-03T07:55:56.778Z,1.77
2022-11-03T07:58:27.382Z,1.70
2022-11-03T08:01:01.308Z,1.97
2022-11-03T08:03:34.038Z,2.27
2022-11-03T08:06:06.181Z,1.20
2022-11-03T08:08:37.682Z,2.33
2022-11-03T08:11:06.829Z,1.77
2022-11-03T08:13:35.518Z,1.57
2022-11-03T08:16:04.361Z,1.83
2022-11-03T08:18:32.920Z,2.07
2022-11-03T08:21:01.465Z,1.80
2022-11-03T08:23:31.803Z,1.97
2022-11-03T08:26:00.631Z,1.83
2022-11-03T08:28:29.600Z,1.20
2022-11-03T08:31:02.269Z,2.07
2022-11-03T08:33:30.930Z,1.83
2022-11-03T08:35:59.539Z,1.60
2022-11-03T08:38:28.180Z,2.23
2022-11-03T08:40:58.406Z,1.77
2022-11-03T08:43:27.007Z,1.83
2022-11-03T08:45:55.574Z,2.23
2022-11-03T08:48:24.442Z,1.20
2022-11-03T08:50:54.237Z,1.53
2022-11-03T08:53:23.752Z,1.80
2022-11-03T08:55:52.500Z,2.03
2022-11-03T08:58:22.544Z,1.83
2022-11-03T09:00:51.449Z,1.57
2022-11-03T09:03:20.092Z,1.43
2022-11-03T09:05:48.673Z,1.70
2022-11-03T09:11:05.930Z,1.73
2022-11-03T09:13:35.847Z,2.07
2022-11-03T09:16:04.417Z,1.33
2022-11-03T09:18:33.975Z,2.13
2022-11-03T09:21:02.556Z,2.23
2022-11-03T09:23:31.118Z,1.20
2022-11-03T09:25:59.682Z,2.10
2022-11-03T09:28:28.224Z,2.97
2022-11-03T09:30:58.635Z,1.43
2022-11-03T09:33:27.195Z,1.33
2022-11-03T09:35:55.792Z,1.30
2022-11-03T09:38:24.441Z,1.30
2022-11-03T09:40:52.972Z,1.97
2022-11-03T09:43:22.505Z,1.20
2022-11-03T09:45:51.123Z,1.20
2022-11-03T09:48:21.030Z,1.33
2022-11-03T09:50:51.291Z,1.63
2022-11-03T09:53:19.848Z,1.03
2022-11-03T09:55:48.424Z,2.00
2022-11-03T09:58:17.792Z,1.10
2022-11-03T10:00:47.002Z,1.20
2022-11-03T10:03:16.870Z,2.10
2022-11-03T10:05:47.123Z,1.20
2022-11-03T10:08:22.609Z,1.43
2022-11-03T10:10:51.524Z,1.17
2022-11-03T10:13:25.708Z,1.37
2022-11-03T10:15:54.364Z,1.30
2022-11-03T10:18:23.056Z,1.40
2022-11-03T10:20:52.920Z,1.27
2022-11-03T10:23:21.503Z,2.57
2022-11-03T10:25:50.056Z,1.23
2022-11-03T10:28:19.843Z,0.97
2022-11-03T10:31:11.215Z,1.00
2022-11-03T10:33:41.616Z,1.07
2022-11-03T10:36:24.545Z,1.33
2022-11-03T10:38:53.291Z,1.30
2022-11-03T10:41:22.959Z,1.10
2022-11-03T10:44:05.595Z,1.20
2022-11-03T10:46:55.277Z,1.83
2022-11-03T10:49:24.756Z,1.17
2022-11-03T10:51:55.362Z,0.93
2022-11-03T10:54:24.830Z,1.33
2022-11-03T10:56:54.269Z,1.13
2022-11-03T10:59:24.211Z,1.73
2022-11-03T11:01:53.018Z,1.23
2022-11-03T11:04:22.330Z,1.13
2022-11-03T11:06:50.945Z,0.97
2022-11-03T11:09:25.398Z,1.10
2022-11-03T11:12:06.773Z,1.20
2022-11-03T11:14:39.729Z,1.97
2022-11-03T11:17:28.335Z,1.53
2022-11-03T11:20:18.216Z,1.53
2022-11-03T11:22:46.745Z,1.30
2022-11-03T11:25:16.678Z,0.83
2022-11-03T11:27:50.272Z,1.20
2022-11-03T11:30:39.119Z,0.87
2022-11-03T11:33:14.812Z,1.20
2022-11-03T11:36:07.266Z,1.10
2022-11-03T11:39:05.819Z,1.97
2022-11-03T11:41:52.776Z,2.07
2022-11-03T11:44:47.928Z,1.13
2022-11-03T11:47:23.040Z,1.80
2022-11-03T11:49:52.854Z,0.90
2022-11-03T11:52:21.458Z,0.80
2022-11-03T11:54:51.168Z,1.07
2022-11-03T11:57:21.032Z,1.30
2022-11-03T11:59:51.517Z,1.40
2022-11-03T12:02:21.058Z,1.13
2022-11-03T12:04:49.728Z,1.83
2022-11-03T12:07:18.426Z,1.70
2022-11-03T12:09:46.986Z,1.00
2022-11-03T12:12:35.240Z,1.03
2022-11-03T12:15:05.375Z,1.20
2022-11-03T12:17:34.972Z,1.10
2022-11-03T12:20:23.755Z,1.13
2022-11-03T12:22:52.366Z,1.23
2022-11-03T12:25:35.089Z,1.23
2022-11-03T12:28:03.832Z,0.93
2022-11-03T12:30:39.409Z,0.90
2022-11-03T12:33:08.884Z,1.00
2022-11-03T12:35:37.790Z,1.03
2022-11-03T12:38:06.342Z,0.70
2022-11-03T12:40:34.930Z,0.90
2022-11-03T12:43:03.636Z,0.70
2022-11-03T12:45:33.688Z,1.33
2022-11-03T12:48:02.226Z,0.70
2022-11-03T12:50:30.784Z,1.70
2022-11-03T12:52:59.370Z,0.93
2022-11-03T12:58:01.366Z,1.00
2022-11-03T13:00:30.167Z,1.00
2022-11-03T13:03:00.047Z,1.27
2022-11-03T13:05:28.607Z,1.00
2022-11-03T13:07:57.152Z,1.17
2022-11-03T13:10:25.698Z,1.33
2022-11-03T13:12:54.226Z,0.90
2022-11-03T13:15:22.796Z,1.27
2022-11-03T13:18:12.236Z,1.33
2022-11-03T13:20:41.247Z,1.13
2022-11-03T13:23:10.231Z,0.80
2022-11-03T13:25:39.050Z,1.03
2022-11-03T13:28:07.719Z,0.83
2022-11-03T13:30:36.504Z,1.00
2022-11-03T13:33:05.549Z,2.30
2022-11-03T13:35:34.422Z,0.90
2022-11-03T13:38:04.298Z,1.17
2022-11-03T13:40:55.520Z,0.90
2022-11-03T13:43:21.455Z,0.70
2022-11-03T13:45:50.007Z,1.33
2022-11-03T13:51:10.327Z,0.90
2022-11-03T13:56:29.132Z,1.50
2022-11-03T14:01:46.408Z,0.80
2022-11-03T14:07:03.617Z,0.80
2022-11-03T14:09:33.685Z,0.93
2022-11-03T14:12:20.100Z,1.17
2022-11-03T14:14:48.760Z,1.53
2022-11-03T14:17:17.290Z,1.03
2022-11-03T14:19:51.736Z,1.77
2022-11-03T14:22:21.195Z,1.00
2022-11-03T14:24:51.393Z,1.07
2022-11-03T14:27:20.418Z,1.07
2022-11-03T14:29:50.301Z,0.93
2022-11-03T14:32:19.180Z,1.03
2022-11-03T14:34:48.156Z,1.03
2022-11-03T14:37:17.049Z,1.00
2022-11-03T14:39:45.639Z,2.00
2022-11-03T14:42:15.983Z,1.00
2022-11-03T14:44:45.412Z,1.83
2022-11-03T14:47:14.946Z,1.07
2022-11-03T14:49:43.519Z,1.10
2022-11-03T14:52:12.173Z,1.07
2022-11-03T14:54:40.708Z,1.27
2022-11-03T14:57:10.366Z,1.20
2022-11-03T14:59:40.262Z,1.33
2022-11-03T15:02:08.930Z,1.30
2022-11-03T15:04:37.797Z,1.37
2022-11-03T15:07:06.346Z,0.90
2022-11-03T15:09:34.932Z,0.87
2022-11-03T15:12:03.448Z,0.80
2022-11-03T15:14:32.038Z,1.00
2022-11-03T15:17:01.960Z,1.00
2022-11-03T15:19:30.480Z,0.77
2022-11-03T15:21:59.083Z,1.10
2022-11-03T15:27:16.108Z,1.93
2022-11-03T15:29:44.670Z,0.90
2022-11-03T15:32:14.536Z,0.90
2022-11-03T15:34:43.059Z,1.10
2022-11-03T15:37:11.638Z,1.30
2022-11-03T15:39:40.208Z,0.87
2022-11-03T15:42:08.875Z,0.87
2022-11-03T15:44:38.398Z,1.20
2022-11-03T15:47:07.070Z,0.83
2022-11-03T15:49:37.327Z,0.97
2022-11-03T15:52:06.423Z,1.27
2022-11-03T15:54:39.804Z,0.90
2022-11-03T15:57:10.903Z,1.00
2022-11-03T15:59:39.978Z,0.97
2022-11-03T16:02:35.165Z,0.80
2022-11-03T16:04:58.378Z,0.73
2022-11-03T16:07:26.980Z,0.90
2022-11-03T16:09:56.298Z,0.80
2022-11-03T16:12:25.338Z,0.70
2022-11-03T16:14:54.222Z,0.90
2022-11-03T16:17:22.886Z,0.80
2022-11-03T16:19:51.444Z,0.80
2022-11-03T16:22:21.347Z,0.70
2022-11-03T16:24:49.947Z,0.80
2022-11-03T16:27:18.527Z,1.17
2022-11-03T16:29:47.062Z,1.47
2022-11-03T16:32:15.579Z,1.00
2022-11-03T16:34:44.702Z,0.80
2022-11-03T16:37:13.847Z,1.00
2022-11-03T16:39:43.793Z,1.10
2022-11-03T16:42:12.323Z,1.00
2022-11-03T16:44:40.887Z,1.00
2022-11-03T16:47:09.429Z,1.17
2022-11-03T16:49:41.542Z,1.33
2022-11-03T16:52:10.808Z,1.27
2022-11-03T16:54:39.364Z,1.00
2022-11-03T16:57:09.232Z,0.90
2022-11-03T16:59:37.824Z,0.83
2022-11-03T17:02:08.845Z,1.00
2022-11-03T17:04:40.732Z,0.90
2022-11-03T17:07:09.303Z,0.93
2022-11-03T17:09:37.891Z,1.00
2022-11-03T17:12:19.813Z,0.93
2022-11-03T17:14:51.324Z,0.70
2022-11-03T17:17:22.713Z,1.00
2022-11-03T17:19:51.263Z,0.80
2022-11-03T17:22:21.214Z,0.80
2022-11-03T17:24:49.878Z,0.93
2022-11-03T17:27:21.266Z,0.80
2022-11-03T17:29:50.991Z,0.70
2022-11-03T17:32:24.926Z,0.80
2022-11-03T17:34:54.186Z,1.03
2022-11-03T17:37:22.971Z,1.10
2022-11-03T17:39:51.777Z,0.90
2022-11-03T17:42:24.581Z,1.00
2022-11-03T17:44:54.881Z,1.33
2022-11-03T17:47:23.996Z,1.00
2022-11-03T17:49:52.804Z,0.90
2022-11-03T17:52:26.686Z,0.87
2022-11-03T17:54:57.704Z,0.80
2022-11-03T17:57:28.011Z,0.90
2022-11-03T17:59:57.731Z,0.80
2022-11-03T18:02:27.260Z,0.80
2022-11-03T18:04:59.446Z,0.80
2022-11-03T18:07:28.921Z,0.80
2022-11-03T18:09:57.595Z,1.10
2022-11-03T18:12:48.783Z,0.80
2022-11-03T18:15:19.086Z,1.00
2022-11-03T18:17:47.713Z,0.80
2022-11-03T18:20:18.597Z,0.80
2022-11-03T18:22:47.284Z,0.70
2022-11-03T18:25:16.382Z,0.80
2022-11-03T18:27:46.554Z,0.90
2022-11-03T18:30:16.624Z,0.70
2022-11-03T18:32:46.254Z,0.80
2022-11-03T18:35:17.475Z,0.93
2022-11-03T18:37:46.240Z,0.80
2022-11-03T18:40:15.139Z,0.70
2022-11-03T18:42:43.892Z,0.77
2022-11-03T18:45:15.160Z,0.90
2022-11-03T18:47:43.922Z,0.80
2022-11-03T18:50:15.443Z,0.70
2022-11-03T18:52:47.421Z,0.60
2022-11-03T18:55:16.917Z,0.83
2022-11-03T18:57:46.011Z,0.70
2022-11-03T19:00:20.199Z,0.70
2022-11-03T19:02:49.044Z,0.80
2022-11-03T19:05:18.339Z,0.53
2022-11-03T19:07:48.080Z,0.67
2022-11-03T19:10:18.528Z,0.70
2022-11-03T19:12:47.853Z,0.50
2022-11-03T19:15:21.827Z,0.70
2022-11-03T19:17:51.038Z,0.60
2022-11-03T19:20:19.850Z,0.90
2022-11-03T19:22:48.525Z,0.70
2022-11-03T19:25:18.585Z,0.70
2022-11-03T19:27:48.662Z,0.60
2022-11-03T19:30:18.304Z,0.70
2022-11-03T19:32:48.906Z,0.80
2022-11-03T19:35:20.011Z,0.60
2022-11-03T19:37:49.537Z,1.33
2022-11-03T19:40:19.703Z,0.50
2022-11-03T19:42:48.666Z,0.60
2022-11-03T19:45:18.292Z,0.60
2022-11-03T19:48:18.250Z,0.63
2022-11-03T19:50:38.598Z,0.90
2022-11-03T19:53:07.765Z,0.70
2022-11-03T19:55:37.879Z,0.50
2022-11-03T19:58:09.517Z,0.60
2022-11-03T20:00:38.405Z,0.60
2022-11-03T20:03:08.300Z,0.70
2022-11-03T20:05:36.946Z,0.57
2022-11-03T20:08:07.426Z,0.60
2022-11-03T20:10:36.464Z,0.63
2022-11-03T20:13:05.315Z,0.63
2022-11-03T20:15:34.110Z,0.70
2022-11-03T20:18:02.624Z,0.70
2022-11-03T20:20:35.898Z,0.77
2022-11-03T20:23:06.071Z,0.60
2022-11-03T20:25:36.072Z,0.63
2022-11-03T20:28:10.378Z,0.70
2022-11-03T20:30:38.926Z,0.70
2022-11-03T20:33:08.486Z,0.70
2022-11-03T20:35:38.758Z,0.60
2022-11-03T20:38:07.687Z,0.73
2022-11-03T20:40:36.425Z,0.60
2022-11-03T20:43:05.246Z,0.80
2022-11-03T20:45:34.154Z,0.70
2022-11-03T20:48:03.194Z,0.53
2022-11-03T20:50:32.486Z,0.70
2022-11-03T20:53:02.977Z,0.70
2022-11-03T20:55:31.554Z,0.70
2022-11-03T20:58:00.487Z,0.73
2022-11-03T21:00:31.359Z,0.80
2022-11-03T21:02:59.887Z,0.73
2022-11-03T21:05:29.467Z,0.77
2022-11-03T21:07:58.040Z,0.60
2022-11-03T21:10:28.483Z,0.70
2022-11-03T21:12:57.041Z,0.90
2022-11-03T21:16:03.610Z,0.60
2022-11-03T21:18:50.342Z,0.60
2022-11-03T21:21:21.154Z,0.63
2022-11-03T21:23:50.049Z,0.87
2022-11-03T21:26:19.948Z,0.67
2022-11-03T21:28:48.487Z,0.70
2022-11-03T21:31:17.036Z,0.67
2022-11-03T21:33:45.595Z,1.10
2022-11-03T21:36:14.283Z,0.90
2022-11-03T21:38:42.839Z,0.60
2022-11-03T21:41:29.172Z,0.70
2022-11-03T21:44:18.978Z,0.73
2022-11-03T21:46:48.907Z,0.50
2022-11-03T21:49:35.366Z,0.67
2022-11-03T21:52:03.873Z,0.60
2022-11-03T21:54:32.467Z,1.20
2022-11-03T21:57:00.975Z,0.53
2022-11-03T21:59:30.905Z,0.70
2022-11-03T22:01:59.526Z,0.60
2022-11-03T22:04:28.160Z,0.80
2022-11-03T22:06:57.166Z,0.53
2022-11-03T22:09:26.087Z,0.63
2022-11-03T22:11:54.890Z,0.67
2022-11-03T22:14:23.429Z,0.60
2022-11-03T22:16:52.381Z,0.60
2022-11-03T22:19:39.278Z,0.60
2022-11-03T22:22:30.205Z,0.60
2022-11-03T22:25:16.456Z,0.60
2022-11-03T22:27:45.126Z,0.60
2022-11-03T22:30:31.431Z,0.50
2022-11-03T22:33:01.283Z,0.70
2022-11-03T22:35:49.819Z,0.60
2022-11-03T22:38:20.792Z,0.90
2022-11-03T22:41:07.101Z,0.60
2022-11-03T22:43:53.493Z,0.70
2022-11-03T22:46:22.081Z,0.60
2022-11-03T22:48:52.111Z,0.70
2022-11-03T22:51:20.647Z,0.50
2022-11-03T22:54:06.976Z,0.60
2022-11-03T22:56:35.567Z,0.60
2022-11-03T22:59:04.138Z,0.50
2022-11-03T23:01:32.890Z,0.53
2022-11-03T23:04:02.860Z,0.50
2022-11-03T23:06:35.442Z,0.60
2022-11-03T23:09:04.021Z,0.50
2022-11-03T23:11:33.286Z,0.77
2022-11-03T23:14:02.982Z,0.50
2022-11-03T23:16:32.256Z,0.70
2022-11-03T23:19:18.576Z,0.60
2022-11-03T23:21:49.402Z,0.63
2022-11-03T23:24:40.461Z,0.70
2022-11-03T23:27:12.617Z,0.60
2022-11-03T23:29:41.274Z,0.70
2022-11-03T23:32:09.838Z,0.67
2022-11-03T23:34:38.374Z,0.80
2022-11-03T23:37:08.274Z,0.93
2022-11-03T23:39:36.793Z,0.80
2022-11-03T23:42:05.441Z,0.93
2022-11-03T23:44:55.846Z,1.00
2022-11-03T23:47:42.111Z,1.37
2022-11-03T23:50:10.796Z,1.10
2022-11-03T23:52:40.646Z,1.10
2022-11-03T23:55:09.852Z,0.90
2022-11-03T23:57:56.237Z,1.20
